Time;durP1;ratioP1;P1;durP2;ratioP2;P2;SDS_P1;SDS_P2;PMS_P1;PMS_P2;Temp;Humidity;BMP_temperature;BMP_pressure;BME280_temperature;BME280_humidity;BME280_pressure;Samples;Min_cycle;Max_cycle;Signal;HPM_P1;HPM_P2
2023/08/27 00:00:28;;;;;;;3.15;2.50;;;;;;;15.11;97.58;100948.44;5045522;28;20502;-51
2023/08/27 00:02:53;;;;;;;2.42;2.22;;;;;;;15.04;98.60;100940.13;5042930;28;20036;-51
2023/08/27 00:05:19;;;;;;;2.33;2.10;;;;;;;14.96;98.84;100942.69;5046762;28;20017;-52
2023/08/27 00:07:44;;;;;;;3.88;1.98;;;;;;;14.88;98.51;100939.88;5049877;28;20471;-52
2023/08/27 00:10:10;;;;;;;3.88;2.20;;;;;;;14.85;99.42;100916.09;5046123;28;20431;-51
2023/08/27 00:12:35;;;;;;;5.22;2.10;;;;;;;14.77;98.15;100912.31;5051943;28;20025;-52
2023/08/27 00:15:00;;;;;;;2.17;1.88;;;;;;;14.73;99.45;100904.72;5050551;28;20027;-52
2023/08/27 00:17:26;;;;;;;2.47;2.28;;;;;;;14.74;99.81;100907.25;5051953;28;20056;-52
2023/08/27 00:19:51;;;;;;;5.28;2.63;;;;;;;14.71;100.00;100899.50;5052592;28;20110;-50
2023/08/27 00:22:17;;;;;;;6.18;2.65;;;;;;;14.69;100.00;100881.91;5048187;28;20223;-51
2023/08/27 00:24:42;;;;;;;2.90;2.50;;;;;;;14.70;100.00;100880.94;5047735;28;20065;-52
2023/08/27 00:27:07;;;;;;;6.93;2.63;;;;;;;14.65;100.00;100869.84;5054665;28;20027;-51
2023/08/27 00:29:33;;;;;;;3.28;2.38;;;;;;;14.63;100.00;100866.47;5040930;28;20025;-50
2023/08/27 00:31:58;;;;;;;3.90;2.50;;;;;;;14.61;100.00;100870.13;5043969;28;20032;-53
2023/08/27 00:34:34;;;;;;;3.03;2.70;;;;;;;14.62;100.00;100870.97;5048092;28;20044;-52
2023/08/27 00:37:00;;;;;;;2.97;2.45;;;;;;;14.59;100.00;100863.25;5044632;28;20032;-51
2023/08/27 00:39:26;;;;;;;7.75;2.50;;;;;;;14.58;100.00;100867.69;5048958;28;20036;-52
2023/08/27 00:41:52;;;;;;;2.92;1.95;;;;;;;14.57;100.00;100863.34;5045680;28;20053;-51
2023/08/27 00:44:17;;;;;;;3.92;2.17;;;;;;;14.57;100.00;100863.34;5049341;28;20482;-52
2023/08/27 00:46:43;;;;;;;3.25;2.40;;;;;;;14.59;100.00;100858.75;5050702;28;20027;-51
2023/08/27 00:49:09;;;;;;;3.75;2.13;;;;;;;14.55;100.00;100854.63;5052175;28;20107;-54
2023/08/27 00:51:35;;;;;;;3.47;2.38;;;;;;;14.52;100.00;100857.59;5048699;28;20062;-51
2023/08/27 00:54:00;;;;;;;4.07;2.20;;;;;;;14.57;100.00;100860.69;5048537;28;20079;-54
2023/08/27 00:56:26;;;;;;;4.00;1.80;;;;;;;14.57;100.00;100854.47;5050161;28;20059;-54
2023/08/27 00:58:52;;;;;;;2.35;1.88;;;;;;;14.54;100.00;100839.59;5054908;28;20033;-51
2023/08/27 01:01:19;;;;;;;3.20;1.95;;;;;;;14.52;100.00;100849.59;5055964;28;20060;-53
2023/08/27 01:03:44;;;;;;;2.55;2.00;;;;;;;14.53;100.00;100853.09;5044890;28;20110;-53
2023/08/27 01:06:10;;;;;;;2.60;2.10;;;;;;;14.51;100.00;100858.56;5053860;28;20069;-53
2023/08/27 01:08:54;;;;;;;3.33;2.50;;;;;;;14.51;100.00;100858.56;5051315;28;20033;-53
2023/08/27 01:11:47;;;;;;;3.08;2.17;;;;;;;14.50;100.00;100850.69;5046858;28;20029;-52
2023/08/27 01:14:16;;;;;;;2.20;2.00;;;;;;;14.41;100.00;100837.22;5049784;28;20047;-54
2023/08/27 01:16:43;;;;;;;2.30;2.10;;;;;;;14.38;100.00;100837.50;5050254;28;20052;-54
2023/08/27 01:19:14;;;;;;;3.10;2.08;;;;;;;14.35;100.00;100840.44;5048944;28;20033;-52
2023/08/27 01:21:43;;;;;;;3.65;1.75;;;;;;;14.32;100.00;100840.75;5052033;28;20036;-51
2023/08/27 01:24:08;;;;;;;4.55;2.10;;;;;;;14.29;100.00;100835.69;5055007;28;20429;-51
2023/08/27 01:26:50;;;;;;;2.08;1.70;;;;;;;14.28;100.00;100836.66;5052101;28;20028;-51
2023/08/27 01:29:30;;;;;;;3.10;2.00;;;;;;;14.22;100.00;100840.75;5049313;28;20029;-53
2023/08/27 01:32:15;;;;;;;5.20;2.00;;;;;;;14.20;100.00;100842.69;5047116;28;20029;-51
2023/08/27 01:34:42;;;;;;;3.88;2.22;;;;;;;14.14;100.00;100839.75;5052590;28;20047;-52
2023/08/27 01:37:10;;;;;;;3.13;1.83;;;;;;;14.12;100.00;100833.72;5046045;28;20491;-51
2023/08/27 01:39:36;;;;;;;4.25;2.20;;;;;;;14.08;100.00;100822.47;5053949;28;20027;-50
2023/08/27 01:42:01;;;;;;;2.00;1.90;;;;;;;14.08;100.00;100819.81;5054245;28;20049;-51
2023/08/27 01:44:26;;;;;;;3.13;2.03;;;;;;;14.05;100.00;100831.63;5049079;28;20104;-52
2023/08/27 01:46:52;;;;;;;2.08;1.88;;;;;;;14.01;100.00;100838.22;5046641;28;20029;-51
2023/08/27 01:49:17;;;;;;;2.10;1.90;;;;;;;13.97;100.00;100834.16;5042040;28;20430;-53
2023/08/27 01:51:42;;;;;;;2.15;1.90;;;;;;;13.96;100.00;100832.44;5040392;28;20518;-51
2023/08/27 01:54:08;;;;;;;3.08;2.05;;;;;;;13.97;100.00;100819.94;5045839;28;20026;-51
2023/08/27 01:56:33;;;;;;;3.45;2.10;;;;;;;13.98;100.00;100827.81;5048367;28;20033;-51
2023/08/27 01:58:58;;;;;;;4.70;2.50;;;;;;;13.99;100.00;100825.97;5047002;28;20037;-52
2023/08/27 02:01:24;;;;;;;2.63;2.00;;;;;;;14.02;100.00;100823.88;5051401;28;20032;-52
2023/08/27 02:03:49;;;;;;;2.53;2.10;;;;;;;14.01;100.00;100813.34;5047353;28;20037;-52
2023/08/27 02:06:15;;;;;;;2.97;2.17;;;;;;;14.01;100.00;100816.00;5053861;28;20028;-52
2023/08/27 02:08:40;;;;;;;4.43;2.30;;;;;;;14.01;100.00;100818.69;5044036;28;20501;-54
2023/08/27 02:11:05;;;;;;;2.30;2.10;;;;;;;14.00;100.00;100823.16;5048520;28;20037;-52
2023/08/27 02:13:31;;;;;;;3.60;2.10;;;;;;;14.00;100.00;100833.84;5051359;28;20112;-53
2023/08/27 02:15:56;;;;;;;5.32;2.30;;;;;;;13.99;100.00;100832.19;5047700;28;20025;-52
2023/08/27 02:18:22;;;;;;;3.60;2.38;;;;;;;13.97;100.00;100834.16;5047749;28;20138;-52
2023/08/27 02:20:47;;;;;;;2.45;2.25;;;;;;;13.98;100.00;100835.81;5050142;28;20084;-52
2023/08/27 02:23:12;;;;;;;2.72;2.40;;;;;;;13.98;100.00;100826.97;5051268;28;20029;-52
2023/08/27 02:25:37;;;;;;;2.95;2.20;;;;;;;14.01;100.00;100832.03;5047295;28;20017;-51
2023/08/27 02:28:04;;;;;;;3.08;2.17;;;;;;;13.99;100.00;100828.63;5050894;28;20029;-52
2023/08/27 02:30:29;;;;;;;4.07;2.70;;;;;;;13.97;100.00;100822.59;5052826;28;20020;-50
2023/08/27 02:32:54;;;;;;;2.83;2.17;;;;;;;13.97;100.00;100826.16;5054007;28;20032;-50
2023/08/27 02:35:20;;;;;;;5.10;2.55;;;;;;;13.97;100.00;100831.47;5049815;28;20029;-52
2023/08/27 02:37:45;;;;;;;2.92;2.45;;;;;;;13.96;100.00;100829.78;5049302;28;20021;-53
2023/08/27 02:40:12;;;;;;;2.97;2.40;;;;;;;13.95;100.00;100828.09;5048244;28;20055;-51
2023/08/27 02:42:38;;;;;;;3.03;2.38;;;;;;;13.94;100.00;100822.88;5043959;28;20048;-54
2023/08/27 02:45:04;;;;;;;2.67;2.47;;;;;;;13.94;100.00;100825.56;5045831;28;20025;-50
2023/08/27 02:47:29;;;;;;;3.08;2.70;;;;;;;13.95;100.00;100821.91;5048199;28;20029;-51
2023/08/27 02:49:55;;;;;;;3.40;2.75;;;;;;;13.94;100.00;100820.22;5049871;28;20447;-52
2023/08/27 02:52:20;;;;;;;2.78;2.50;;;;;;;13.92;100.00;100833.69;5052193;28;20104;-51
2023/08/27 02:54:45;;;;;;;3.53;2.58;;;;;;;13.93;100.00;100835.41;5046258;28;20032;-51
2023/08/27 02:57:10;;;;;;;3.75;2.70;;;;;;;13.96;100.00;100832.44;5045209;28;20498;-53
2023/08/27 02:59:36;;;;;;;4.72;2.83;;;;;;;13.97;100.00;100825.28;5046941;28;20052;-51
2023/08/27 03:02:01;;;;;;;3.40;2.63;;;;;;;13.98;100.00;100830.47;5051431;28;20036;-51
2023/08/27 03:04:26;;;;;;;3.83;3.00;;;;;;;13.97;100.00;100835.97;5051645;28;20017;-51
2023/08/27 03:06:52;;;;;;;2.97;2.72;;;;;;;13.98;100.00;100833.16;5047746;28;20033;-51
2023/08/27 03:09:17;;;;;;;3.85;2.80;;;;;;;13.98;100.00;100826.97;5047935;28;20029;-52
2023/08/27 03:11:42;;;;;;;4.03;2.80;;;;;;;13.99;100.00;100829.50;5053860;28;20024;-52
2023/08/27 03:14:08;;;;;;;3.13;2.80;;;;;;;13.95;100.00;100824.56;5047140;28;20035;-51
2023/08/27 03:16:33;;;;;;;6.35;3.22;;;;;;;14.00;100.00;100838.34;5045890;28;20018;-51
2023/08/27 03:18:58;;;;;;;4.05;2.60;;;;;;;13.99;100.00;100842.00;5047439;28;20498;-51
2023/08/27 03:21:24;;;;;;;4.82;2.75;;;;;;;14.00;100.00;100839.19;5042379;28;20087;-50
2023/08/27 03:23:50;;;;;;;3.10;2.65;;;;;;;14.03;100.00;100838.06;5046978;28;20024;-51
2023/08/27 03:26:15;;;;;;;5.63;3.08;;;;;;;14.02;100.00;100847.06;5048711;28;20476;-51
2023/08/27 03:28:41;;;;;;;3.47;2.70;;;;;;;13.99;100.00;100845.53;5050157;28;20036;-50
2023/08/27 03:31:06;;;;;;;7.97;3.25;;;;;;;14.01;100.00;100848.91;5053694;28;20044;-52
2023/08/27 03:33:32;;;;;;;4.75;3.17;;;;;;;14.02;100.00;100839.03;5052522;28;20029;-51
2023/08/27 03:35:58;;;;;;;6.53;3.60;;;;;;;14.01;100.00;100829.38;5048647;28;20475;-51
2023/08/27 03:38:23;;;;;;;6.30;2.85;;;;;;;14.00;100.00;100825.00;5049658;28;20040;-54
2023/08/27 03:40:50;;;;;;;6.43;2.80;;;;;;;14.02;100.00;100820.34;5044342;28;20518;-51
2023/08/27 03:43:16;;;;;;;4.25;3.38;;;;;;;14.02;100.00;100817.69;5050302;28;20045;-51
2023/08/27 03:45:41;;;;;;;5.72;2.55;;;;;;;13.99;100.00;100808.16;5045369;28;20044;-52
2023/08/27 03:48:07;;;;;;;7.60;2.80;;;;;;;13.95;100.00;100803.22;5045769;28;20811;-55
2023/08/27 03:50:32;;;;;;;4.68;3.00;;;;;;;13.97;100.00;100806.59;5054834;28;20120;-54
2023/08/27 03:52:57;;;;;;;3.72;2.58;;;;;;;13.96;100.00;100802.25;5044652;28;20075;-55
2023/08/27 03:55:23;;;;;;;3.03;2.40;;;;;;;13.95;100.00;100804.06;5055795;28;20746;-51
2023/08/27 03:57:50;;;;;;;3.47;2.63;;;;;;;13.94;100.00;100793.50;5042224;28;20029;-51
2023/08/27 04:00:16;;;;;;;3.83;2.42;;;;;;;13.96;100.00;100799.56;5045943;28;20054;-51
2023/08/27 04:02:44;;;;;;;2.88;2.60;;;;;;;13.99;100.00;100800.13;5047429;28;20013;-51
2023/08/27 04:05:09;;;;;;;5.30;3.33;;;;;;;14.01;100.00;100802.66;5048459;28;20025;-51
2023/08/27 04:07:35;;;;;;;4.95;2.90;;;;;;;14.03;100.00;100806.03;5051962;28;20041;-51
2023/08/27 04:10:00;;;;;;;4.88;3.10;;;;;;;14.03;100.00;100801.53;5045800;28;20067;-51
2023/08/27 04:12:25;;;;;;;3.15;2.80;;;;;;;14.05;100.00;100791.56;5045884;28;20425;-52
2023/08/27 04:14:51;;;;;;;4.68;2.60;;;;;;;14.06;100.00;100792.41;5054248;28;20029;-51
2023/08/27 04:17:16;;;;;;;4.22;2.65;;;;;;;14.06;100.00;100790.56;5055111;28;20414;-50
2023/08/27 04:19:42;;;;;;;5.72;2.65;;;;;;;14.06;100.00;100798.56;5058612;28;20445;-52
2023/08/27 04:22:08;;;;;;;4.32;2.65;;;;;;;14.08;100.00;100803.78;5056428;28;20032;-52
2023/08/27 04:24:33;;;;;;;6.05;3.20;;;;;;;14.08;100.00;100809.13;5049422;28;20026;-51
2023/08/27 04:26:58;;;;;;;4.22;3.00;;;;;;;14.07;100.00;100808.28;5048786;28;20482;-51
2023/08/27 04:29:24;;;;;;;3.78;2.97;;;;;;;14.09;100.00;100810.81;5048741;28;20379;-50
2023/08/27 04:31:50;;;;;;;4.68;2.70;;;;;;;14.08;100.00;100801.09;5053391;28;20022;-50
2023/08/27 04:34:15;;;;;;;3.85;3.10;;;;;;;14.06;100.00;100803.91;5050298;28;20021;-51
2023/08/27 04:36:40;;;;;;;3.53;3.05;;;;;;;14.08;100.00;100803.78;5047183;28;20494;-52
2023/08/27 04:39:07;;;;;;;6.18;2.80;;;;;;;14.09;100.00;100800.13;5049665;28;20070;-51
2023/08/27 04:41:33;;;;;;;3.63;2.80;;;;;;;14.05;100.00;100802.25;5048652;28;20031;-51
2023/08/27 04:43:59;;;;;;;4.72;3.10;;;;;;;14.06;100.00;100801.25;5048172;28;20041;-51
2023/08/27 04:46:24;;;;;;;6.20;3.55;;;;;;;14.05;100.00;100801.38;5051239;28;20024;-51
2023/08/27 04:48:49;;;;;;;5.20;3.03;;;;;;;14.08;100.00;100798.44;5050241;28;20032;-51
2023/08/27 04:51:16;;;;;;;5.18;2.95;;;;;;;14.06;100.00;100805.75;5057627;28;20032;-51
2023/08/27 04:53:41;;;;;;;3.50;2.92;;;;;;;14.02;100.00;100823.88;5051557;28;20128;-51
2023/08/27 04:56:06;;;;;;;5.13;2.85;;;;;;;14.01;100.00;100824.84;5047519;28;20111;-51
2023/08/27 04:58:32;;;;;;;6.40;2.88;;;;;;;13.99;100.00;100821.50;5051571;28;20067;-51
2023/08/27 05:00:57;;;;;;;4.43;2.83;;;;;;;14.02;100.00;100826.56;5052279;28;20025;-51
2023/08/27 05:03:23;;;;;;;8.07;3.20;;;;;;;13.99;100.00;100833.97;5049146;28;20028;-51
2023/08/27 05:05:51;;;;;;;3.97;2.47;;;;;;;13.98;100.00;100830.47;5048561;28;20044;-51
2023/08/27 05:08:16;;;;;;;5.47;3.13;;;;;;;13.95;100.00;100833.41;5053346;28;20490;-51
2023/08/27 05:10:42;;;;;;;3.08;2.80;;;;;;;13.93;100.00;100835.41;5057599;28;20029;-54
2023/08/27 05:13:07;;;;;;;7.15;3.22;;;;;;;13.95;100.00;100829.91;5043987;28;20074;-53
2023/08/27 05:15:32;;;;;;;6.03;3.10;;;;;;;13.94;100.00;100828.22;5045801;28;20522;-51
2023/08/27 05:17:58;;;;;;;3.38;2.80;;;;;;;13.93;100.00;100834.56;5053191;28;20067;-51
2023/08/27 05:20:23;;;;;;;4.97;2.75;;;;;;;13.92;100.00;100825.69;5050667;28;20432;-51
2023/08/27 05:22:48;;;;;;;3.72;2.88;;;;;;;13.95;100.00;100832.59;5050682;28;20120;-52
2023/08/27 05:25:14;;;;;;;3.13;2.83;;;;;;;13.96;100.00;100826.28;5047272;28;20042;-51
2023/08/27 05:27:44;;;;;;;6.53;3.33;;;;;;;13.98;100.00;100830.47;5050045;28;20024;-51
2023/08/27 05:30:12;;;;;;;5.20;3.70;;;;;;;13.96;100.00;100835.13;5049206;28;20036;-49
2023/08/27 05:32:37;;;;;;;5.20;3.83;;;;;;;13.99;100.00;100831.31;5049570;28;20097;-52
2023/08/27 05:35:03;;;;;;;4.43;3.65;;;;;;;14.00;100.00;100825.84;5054372;28;20624;-53
2023/08/27 05:37:28;;;;;;;4.53;4.00;;;;;;;13.99;100.00;100817.97;5046403;28;20082;-54
2023/08/27 05:39:53;;;;;;;4.72;4.25;;;;;;;14.00;100.00;100827.66;5052464;28;20040;-52
2023/08/27 05:42:18;;;;;;;4.40;4.00;;;;;;;14.02;100.00;100839.91;5048331;28;20498;-51
2023/08/27 05:44:44;;;;;;;6.82;4.22;;;;;;;14.04;100.00;100829.09;5046159;28;20379;-53
2023/08/27 05:47:09;;;;;;;5.07;3.58;;;;;;;14.02;100.00;100823.88;5059788;28;20471;-50
2023/08/27 05:49:34;;;;;;;4.82;3.03;;;;;;;14.01;100.00;100827.53;5047292;28;20037;-52
2023/08/27 05:52:00;;;;;;;4.40;3.08;;;;;;;14.04;100.00;100823.75;5042163;28;20025;-50
2023/08/27 05:54:25;;;;;;;5.35;3.30;;;;;;;14.04;100.00;100829.09;5053053;28;20371;-56
2023/08/27 05:56:50;;;;;;;3.50;3.20;;;;;;;14.04;100.00;100827.25;5050573;28;20489;-52
2023/08/27 05:59:15;;;;;;;5.45;3.25;;;;;;;14.06;100.00;100822.59;5046435;28;20035;-50
2023/08/27 06:01:42;;;;;;;6.95;3.40;;;;;;;14.08;100.00;100814.47;5053424;28;20021;-50
2023/08/27 06:04:08;;;;;;;5.50;3.20;;;;;;;14.09;100.00;100823.31;5047428;28;20021;-50
2023/08/27 06:06:33;;;;;;;4.03;3.63;;;;;;;14.13;100.00;100822.06;5043323;28;20029;-52
2023/08/27 06:08:59;;;;;;;4.50;3.70;;;;;;;14.14;100.00;100824.59;5051063;28;20060;-53
2023/08/27 06:11:24;;;;;;;6.82;3.88;;;;;;;14.17;100.00;100821.63;5044874;28;20115;-50
2023/08/27 06:13:49;;;;;;;5.10;3.67;;;;;;;14.20;100.00;100813.31;5047676;28;20025;-51
2023/08/27 06:16:15;;;;;;;4.70;3.45;;;;;;;14.20;100.00;100805.31;5056705;28;20029;-51
2023/08/27 06:18:40;;;;;;;3.67;3.38;;;;;;;14.24;100.00;100803.22;5047649;28;20060;-51
2023/08/27 06:21:06;;;;;;;5.85;3.65;;;;;;;14.27;100.00;100802.06;5057986;28;20033;-50
2023/08/27 06:23:32;;;;;;;5.47;3.30;;;;;;;14.29;100.00;100800.09;5045336;28;20446;-54
2023/08/27 06:26:04;;;;;;;9.20;3.45;;;;;;;14.32;100.00;100800.69;5052712;28;20037;-52
2023/08/27 06:28:29;;;;;;;4.57;3.30;;;;;;;14.33;100.00;100797.00;5043120;28;20021;-54
2023/08/27 06:30:54;;;;;;;4.97;3.50;;;;;;;14.37;100.00;100793.06;5056174;28;20032;-52
2023/08/27 06:33:20;;;;;;;4.80;3.28;;;;;;;14.40;100.00;100799.94;5053318;28;20039;-54
2023/08/27 06:35:45;;;;;;;4.70;3.40;;;;;;;14.43;100.00;100794.31;5042147;28;20104;-51
2023/08/27 06:38:11;;;;;;;7.38;3.70;;;;;;;14.46;100.00;100794.03;5043850;28;20017;-52
2023/08/27 06:40:36;;;;;;;5.97;3.47;;;;;;;14.48;100.00;100794.72;5047230;28;20170;-51
2023/08/27 06:43:02;;;;;;;6.43;3.55;;;;;;;14.50;100.00;100797.25;5043211;28;20106;-50
2023/08/27 06:45:28;;;;;;;5.70;3.60;;;;;;;14.54;100.00;100798.66;5042587;28;20040;-51
2023/08/27 06:47:54;;;;;;;6.30;3.38;;;;;;;14.60;100.00;100798.97;5049186;28;20421;-54
2023/08/27 06:50:20;;;;;;;8.13;3.75;;;;;;;14.63;100.00;100802.31;5048512;28;20025;-51
2023/08/27 06:52:45;;;;;;;6.90;3.25;;;;;;;14.68;100.00;100800.06;5040298;28;20109;-51
2023/08/27 06:55:10;;;;;;;6.22;3.95;;;;;;;14.78;100.00;100800.84;5051516;28;20537;-51
2023/08/27 06:57:37;;;;;;;4.70;3.70;;;;;;;14.85;100.00;100801.13;5048904;28;20026;-51
2023/08/27 07:00:07;;;;;;;5.00;3.95;;;;;;;14.90;100.00;100798.84;5035444;28;20100;-53
2023/08/27 07:02:32;;;;;;;;;;;;;;;15.01;100.00;100806.69;5046064;28;20029;-51
2023/08/27 07:04:57;;;;;;;6.47;3.70;;;;;;;15.08;100.00;100812.28;5038104;28;19917;-50
2023/08/27 07:07:23;;;;;;;5.53;3.63;;;;;;;15.22;100.00;100814.47;5036364;28;20057;-52
2023/08/27 07:09:48;;;;;;;5.97;3.80;;;;;;;15.35;100.00;100816.78;5034830;28;20032;-53
2023/08/27 07:12:13;;;;;;;6.80;4.30;;;;;;;15.53;100.00;100814.16;5043591;28;20406;-51
2023/08/27 07:14:39;;;;;;;9.25;4.03;;;;;;;15.67;100.00;100813.66;5045597;28;20526;-52
2023/08/27 07:17:04;;;;;;;9.15;3.67;;;;;;;15.94;100.00;100822.63;5041476;28;20483;-51
2023/08/27 07:19:29;;;;;;;5.28;3.60;;;;;;;16.07;100.00;100814.19;5044882;28;20029;-51
2023/08/27 07:21:55;;;;;;;4.60;3.58;;;;;;;16.21;100.00;100804.78;5043028;28;20439;-52
2023/08/27 07:24:20;;;;;;;5.85;4.00;;;;;;;16.31;100.00;100808.22;5049781;28;20396;-51
2023/08/27 07:26:45;;;;;;;6.10;3.92;;;;;;;16.56;100.00;100805.69;5043022;28;20064;-51
2023/08/27 07:29:10;;;;;;;5.40;3.25;;;;;;;16.73;100.00;100801.28;5040016;28;20053;-51
2023/08/27 07:31:36;;;;;;;6.78;3.58;;;;;;;16.90;100.00;100805.75;5042282;28;20375;-50
2023/08/27 07:34:02;;;;;;;6.65;3.90;;;;;;;17.05;100.00;100816.72;5043309;28;20025;-52
2023/08/27 07:36:28;;;;;;;6.78;3.30;;;;;;;17.20;100.00;100801.72;5041936;28;20029;-51
2023/08/27 07:38:53;;;;;;;6.28;3.72;;;;;;;17.37;100.00;100817.88;5046310;28;20560;-52
2023/08/27 07:41:18;;;;;;;5.53;3.45;;;;;;;17.50;100.00;100818.25;5047712;28;20463;-51
2023/08/27 07:43:44;;;;;;;4.72;3.65;;;;;;;17.60;100.00;100812.72;5044713;28;20049;-52
2023/08/27 07:46:09;;;;;;;6.32;3.40;;;;;;;17.72;100.00;100818.66;5043865;28;20017;-52
2023/08/27 07:48:34;;;;;;;8.10;3.65;;;;;;;17.68;100.00;100820.78;5039244;28;20037;-52
2023/08/27 07:51:02;;;;;;;7.13;3.65;;;;;;;17.71;100.00;100812.41;5039422;28;20100;-52
2023/08/27 07:53:28;;;;;;;8.32;3.92;;;;;;;17.76;99.78;100814.59;5041633;28;20479;-52
2023/08/27 07:55:54;;;;;;;5.10;3.65;;;;;;;17.88;100.00;100815.16;5047169;28;20036;-52
2023/08/27 07:58:19;;;;;;;5.93;3.67;;;;;;;18.07;98.82;100825.59;5039016;28;20032;-51
2023/08/27 08:00:44;;;;;;;5.97;3.47;;;;;;;18.30;98.45;100819.53;5038782;28;20021;-52
2023/08/27 08:03:10;;;;;;;5.00;3.83;;;;;;;18.44;96.71;100810.78;5045977;28;20020;-54
2023/08/27 08:05:35;;;;;;;5.80;3.67;;;;;;;18.39;92.49;100818.53;5040383;28;20040;-51
2023/08/27 08:08:00;;;;;;;7.18;3.33;;;;;;;18.35;95.42;100811.78;5038590;28;20071;-51
2023/08/27 08:10:26;;;;;;;6.18;3.50;;;;;;;18.32;95.05;100806.78;5036539;28;20354;-50
2023/08/27 08:12:52;;;;;;;6.10;3.30;;;;;;;18.41;93.60;100805.75;5042585;28;20029;-51
2023/08/27 08:15:18;;;;;;;7.13;3.67;;;;;;;18.44;95.81;100805.41;5044601;28;20079;-51
2023/08/27 08:17:43;;;;;;;7.72;3.42;;;;;;;18.47;92.20;100815.00;5052201;28;20056;-50
2023/08/27 08:20:09;;;;;;;7.22;3.42;;;;;;;18.66;93.68;100811.91;5041644;28;20033;-51
2023/08/27 08:22:34;;;;;;;9.40;3.83;;;;;;;18.78;91.27;100812.41;5042742;28;20474;-51
2023/08/27 08:24:59;;;;;;;7.10;3.30;;;;;;;18.95;88.69;100815.94;5038692;28;20034;-51
2023/08/27 08:27:25;;;;;;;6.05;3.15;;;;;;;19.21;89.71;100810.25;5045421;28;20475;-52
2023/08/27 08:29:50;;;;;;;6.25;3.17;;;;;;;19.34;89.04;100822.34;5039404;28;20029;-53
2023/08/27 08:32:15;;;;;;;8.23;3.30;;;;;;;19.58;88.19;100819.53;5042279;28;20033;-51
2023/08/27 08:34:41;;;;;;;7.53;3.53;;;;;;;19.75;85.08;100816.72;5046219;28;20025;-53
2023/08/27 08:37:07;;;;;;;7.75;3.03;;;;;;;19.94;85.65;100816.25;5048060;28;20033;-50
2023/08/27 08:39:33;;;;;;;9.40;3.13;;;;;;;20.10;85.23;100820.72;5048455;28;20064;-53
2023/08/27 08:42:25;;;;;;;6.47;2.67;;;;;;;20.37;84.98;100823.00;5038545;28;20043;-51
2023/08/27 08:44:56;;;;;;;5.70;3.05;;;;;;;20.48;81.04;100820.72;5045308;28;20425;-49
2023/08/27 08:47:23;;;;;;;6.10;2.70;;;;;;;20.72;79.65;100820.66;5040368;28;20087;-51
2023/08/27 08:49:53;;;;;;;5.57;2.60;;;;;;;20.83;76.82;100822.91;5037489;28;20064;-51
2023/08/27 08:52:25;;;;;;;6.88;2.95;;;;;;;20.86;77.89;100817.97;5035408;28;20053;-51
2023/08/27 08:54:53;;;;;;;4.57;2.40;;;;;;;20.85;74.38;100837.03;5041036;28;20032;-52
2023/08/27 08:57:20;;;;;;;4.15;1.90;;;;;;;20.91;74.13;100822.00;5036232;28;20054;-53
2023/08/27 08:59:47;;;;;;;5.07;2.38;;;;;;;20.80;72.48;100823.28;5008326;28;20049;-51
2023/08/27 09:02:13;;;;;;;5.47;2.08;;;;;;;20.65;74.90;100824.13;5043659;28;20084;-53
2023/08/27 09:04:40;;;;;;;4.10;1.80;;;;;;;20.52;71.56;100810.38;5039947;28;20037;-52
2023/08/27 09:07:06;;;;;;;4.78;1.92;;;;;;;20.60;73.41;100810.31;5040304;28;20408;-51
2023/08/27 09:09:32;;;;;;;6.35;2.03;;;;;;;20.62;75.07;100815.53;5045467;28;20028;-51
2023/08/27 09:12:01;;;;;;;4.93;2.00;;;;;;;20.85;74.12;100802.81;5048038;28;20037;-50
2023/08/27 09:14:29;;;;;;;3.33;1.88;;;;;;;21.11;73.09;100792.56;5050109;28;20029;-51
2023/08/27 09:16:55;;;;;;;8.02;2.08;;;;;;;21.36;73.61;100793.88;5044608;28;20365;-51
2023/08/27 09:19:20;;;;;;;5.07;2.03;;;;;;;21.60;69.16;100792.75;5046608;28;20032;-51
2023/08/27 09:21:46;;;;;;;4.03;1.80;;;;;;;21.94;70.48;100790.38;5047142;28;20076;-50
2023/08/27 09:24:11;;;;;;;4.43;1.58;;;;;;;22.26;68.82;100796.28;5046972;28;20022;-51
2023/08/27 09:26:38;;;;;;;5.82;1.33;;;;;;;22.53;67.21;100791.91;5050457;28;20068;-53
2023/08/27 09:29:07;;;;;;;4.85;1.83;;;;;;;22.79;66.80;100783.13;5042764;28;20033;-53
2023/08/27 09:31:35;;;;;;;4.72;1.40;;;;;;;23.02;65.32;100782.00;5047664;28;20083;-51
2023/08/27 09:34:01;;;;;;;6.40;2.10;;;;;;;23.03;61.22;100787.22;5041141;28;20033;-51
2023/08/27 09:36:26;;;;;;;4.70;1.80;;;;;;;22.85;63.58;100771.50;5045770;28;20382;-52
2023/08/27 09:38:51;;;;;;;4.78;1.70;;;;;;;22.72;61.79;100772.25;5056911;28;20051;-52
2023/08/27 09:41:17;;;;;;;4.05;1.95;;;;;;;22.69;61.12;100766.41;5043329;28;20025;-51
2023/08/27 09:43:53;;;;;;;4.28;1.70;;;;;;;22.98;64.08;100761.75;5045021;28;20045;-53
2023/08/27 09:46:19;;;;;;;5.82;2.00;;;;;;;23.08;60.84;100768.53;5046918;28;20025;-54
2023/08/27 09:49:14;;;;;;;7.50;1.85;;;;;;;23.44;63.18;100759.25;5051696;28;20041;-51
2023/08/27 09:51:39;;;;;;;5.82;1.63;;;;;;;23.57;60.56;100761.16;5048715;28;20021;-52
2023/08/27 09:54:15;;;;;;;3.80;1.50;;;;;;;23.48;60.49;100765.09;5040916;28;20387;-52
2023/08/27 09:56:45;;;;;;;3.83;1.80;;;;;;;23.62;60.51;100755.13;5054575;28;20067;-50
2023/08/27 09:59:10;;;;;;;4.93;1.58;;;;;;;23.77;58.78;100769.31;5040508;28;20036;-50
2023/08/27 10:01:35;;;;;;;4.88;1.67;;;;;;;23.88;57.59;100759.78;5049489;28;20029;-51
2023/08/27 10:04:03;;;;;;;4.85;1.58;;;;;;;24.00;57.60;100755.41;5044546;28;20543;-51
2023/08/27 10:06:34;;;;;;;3.58;1.45;;;;;;;24.20;58.47;100752.69;5051584;28;20037;-51
2023/08/27 10:08:59;;;;;;;6.25;1.83;;;;;;;24.40;56.78;100754.53;5055050;28;20028;-51
2023/08/27 10:11:25;;;;;;;4.10;1.77;;;;;;;24.44;55.73;100757.66;5050576;28;20029;-51
2023/08/27 10:13:51;;;;;;;5.38;1.52;;;;;;;24.45;55.29;100756.59;5044911;28;20020;-50
2023/08/27 10:16:16;;;;;;;3.88;1.50;;;;;;;24.53;58.35;100757.22;5052500;28;20078;-54
2023/08/27 10:18:42;;;;;;;3.13;1.42;;;;;;;24.78;57.34;100764.72;5051048;28;20248;-53
2023/08/27 10:21:08;;;;;;;5.70;1.45;;;;;;;24.99;54.79;100762.75;5047900;28;20039;-51
2023/08/27 10:23:37;;;;;;;2.92;1.30;;;;;;;25.16;52.88;100749.50;5049010;28;20025;-50
2023/08/27 10:26:03;;;;;;;2.72;1.27;;;;;;;25.30;51.00;100754.69;5053996;28;20036;-51
2023/08/27 10:28:29;;;;;;;3.80;1.30;;;;;;;25.41;52.87;100750.44;5048533;28;20025;-52
2023/08/27 10:30:56;;;;;;;2.80;0.93;;;;;;;25.32;51.25;100748.22;5050083;28;20025;-51
2023/08/27 10:33:22;;;;;;;4.28;1.27;;;;;;;25.20;52.11;100740.72;5050743;28;20517;-51
2023/08/27 10:35:51;;;;;;;2.30;0.98;;;;;;;25.02;49.91;100746.03;5047170;28;20037;-50
2023/08/27 10:38:18;;;;;;;3.53;1.35;;;;;;;24.89;50.59;100749.63;5050325;28;20041;-50
2023/08/27 10:40:44;;;;;;;3.95;1.42;;;;;;;24.47;53.17;100754.53;5045163;28;20033;-51
2023/08/27 10:43:20;;;;;;;4.43;1.33;;;;;;;24.30;54.40;100754.16;5048800;28;20140;-50
2023/08/27 10:45:47;;;;;;;4.35;1.40;;;;;;;24.33;53.99;100759.13;5045212;28;20034;-50
2023/08/27 10:48:18;;;;;;;3.28;1.10;;;;;;;24.39;53.72;100766.44;5041401;28;20052;-51
2023/08/27 10:50:51;;;;;;;2.25;1.15;;;;;;;24.31;54.81;100770.19;5043146;28;20032;-50
2023/08/27 10:53:18;;;;;;;5.78;1.20;;;;;;;24.22;52.88;100771.47;5041516;28;20025;-50
2023/08/27 10:55:50;;;;;;;4.65;1.30;;;;;;;24.07;52.80;100770.84;5049191;28;20063;-50
2023/08/27 10:58:21;;;;;;;2.00;1.10;;;;;;;23.76;52.60;100756.78;5046536;28;20041;-50
2023/08/27 11:01:02;;;;;;;4.65;1.30;;;;;;;24.16;56.70;100761.44;5045108;28;20036;-50
2023/08/27 11:03:48;;;;;;;1.45;0.80;;;;;;;24.30;53.93;100759.56;5049393;28;20087;-50
2023/08/27 11:06:13;;;;;;;3.30;0.90;;;;;;;24.44;52.00;100750.34;5066690;28;20025;-50
2023/08/27 11:08:40;;;;;;;4.63;1.00;;;;;;;24.38;51.81;100753.91;5049488;28;20090;-49
2023/08/27 11:11:11;;;;;;;3.53;1.10;;;;;;;24.31;50.57;100759.34;5052285;28;20441;-51
2023/08/27 11:13:36;;;;;;;2.13;0.77;;;;;;;23.95;49.69;100757.91;5050169;28;20051;-50
2023/08/27 11:16:11;;;;;;;3.28;0.90;;;;;;;23.60;52.81;100759.94;5048139;28;20494;-53